Time;durP1;ratioP1;P1;durP2;ratioP2;P2;SDS_P1;SDS_P2;PMS_P1;PMS_P2;Temp;Humidity;BMP_temperature;BMP_pressure;BME280_temperature;BME280_humidity;BME280_pressure;Samples;Min_cycle;Max_cycle;Signal;HPM_P1;HPM_P2
2022/06/29 00:00:06;;;;;;;2.38;0.43;;;20.90;68.60;;;;;;5093188;28;20016;-76
2022/06/29 00:02:33;;;;;;;4.47;0.50;;;20.90;68.60;;;;;;5093102;28;20034;-76
2022/06/29 00:04:58;;;;;;;2.97;0.40;;;20.90;68.40;;;;;;5093027;28;20024;-76
2022/06/29 00:07:24;;;;;;;1.90;0.32;;;20.90;68.50;;;;;;5093087;28;20460;-76
2022/06/29 00:09:49;;;;;;;1.80;0.40;;;20.90;68.90;;;;;;5093175;28;20097;-75
2022/06/29 00:12:15;;;;;;;3.30;0.30;;;20.80;68.70;;;;;;5092807;28;20032;-75
2022/06/29 00:14:44;;;;;;;5.32;0.40;;;20.80;68.50;;;;;;5092939;28;20024;-76
2022/06/29 00:17:11;;;;;;;1.98;0.40;;;20.80;68.70;;;;;;5092873;28;20028;-75
2022/06/29 00:19:38;;;;;;;3.85;0.47;;;20.80;68.60;;;;;;5093089;28;20587;-75
2022/06/29 00:22:04;;;;;;;2.50;0.30;;;20.80;68.90;;;;;;5092802;28;20028;-75
2022/06/29 00:24:31;;;;;;;4.97;0.40;;;20.80;68.90;;;;;;5092969;28;20099;-75
2022/06/29 00:26:58;;;;;;;2.92;0.30;;;20.80;68.80;;;;;;5092993;28;20024;-76
2022/06/29 00:29:24;;;;;;;3.38;0.30;;;20.80;68.70;;;;;;5094445;28;20425;-75
2022/06/29 00:31:49;;;;;;;3.42;0.40;;;20.80;68.60;;;;;;5095914;28;20032;-75
2022/06/29 00:34:15;;;;;;;1.85;0.35;;;20.80;68.90;;;;;;5096488;28;20142;-75
2022/06/29 00:36:41;;;;;;;1.63;0.30;;;20.80;68.90;;;;;;5096021;28;20027;-75
2022/06/29 00:39:06;;;;;;;1.70;0.43;;;20.80;69.00;;;;;;5096277;28;20024;-75
2022/06/29 00:41:40;;;;;;;2.88;0.40;;;20.80;69.00;;;;;;5096241;28;20024;-75
2022/06/29 00:44:07;;;;;;;1.83;0.35;;;20.80;69.20;;;;;;5096388;28;20369;-75
2022/06/29 00:46:34;;;;;;;1.75;0.50;;;20.80;69.30;;;;;;5095977;28;20383;-75
2022/06/29 00:49:00;;;;;;;2.83;0.45;;;20.70;69.20;;;;;;5095686;28;20093;-75
2022/06/29 00:51:29;;;;;;;1.17;0.20;;;20.80;69.40;;;;;;5095501;28;20380;-75
2022/06/29 00:53:56;;;;;;;2.30;0.40;;;20.80;69.50;;;;;;5095784;28;20114;-75
2022/06/29 00:56:24;;;;;;;2.13;0.40;;;20.80;69.50;;;;;;5096096;28;20051;-76
2022/06/29 00:58:55;;;;;;;2.33;0.38;;;20.80;69.50;;;;;;5095713;28;20020;-75
2022/06/29 01:01:21;;;;;;;2.42;0.30;;;20.70;69.70;;;;;;5095666;28;20463;-76
2022/06/29 01:03:46;;;;;;;1.85;0.25;;;20.70;69.80;;;;;;5095399;28;20027;-76
2022/06/29 01:06:12;;;;;;;2.85;0.50;;;20.70;70.10;;;;;;5095767;28;20111;-76
2022/06/29 01:08:37;;;;;;;2.25;0.47;;;20.70;70.00;;;;;;5095504;28;20080;-76
2022/06/29 01:11:03;;;;;;;2.60;0.43;;;20.70;69.90;;;;;;5095776;28;20032;-76
2022/06/29 01:13:29;;;;;;;2.83;0.40;;;20.70;69.80;;;;;;5095235;28;20475;-76
2022/06/29 01:15:54;;;;;;;1.95;0.35;;;20.60;69.90;;;;;;5095466;28;20031;-76
2022/06/29 01:18:20;;;;;;;2.88;0.47;;;20.60;70.70;;;;;;5095574;28;20110;-76
2022/06/29 01:20:46;;;;;;;2.03;0.35;;;20.60;70.10;;;;;;5095519;28;20459;-76
2022/06/29 01:23:12;;;;;;;2.35;0.52;;;20.60;70.30;;;;;;5095590;28;20048;-76
2022/06/29 01:25:38;;;;;;;1.92;0.50;;;20.60;70.20;;;;;;5095009;28;20485;-76
2022/06/29 01:28:04;;;;;;;3.85;0.50;;;20.60;70.50;;;;;;5095557;28;20024;-76
2022/06/29 01:30:29;;;;;;;5.22;0.50;;;20.60;70.60;;;;;;5095082;28;20025;-76
2022/06/29 01:32:55;;;;;;;2.40;0.47;;;20.60;70.50;;;;;;5094770;28;20074;-76
2022/06/29 01:35:23;;;;;;;2.35;0.30;;;20.60;70.60;;;;;;5095196;28;20032;-76
2022/06/29 01:37:49;;;;;;;3.83;0.50;;;20.60;70.70;;;;;;5095180;28;20051;-76
2022/06/29 01:40:15;;;;;;;3.42;0.45;;;20.60;70.70;;;;;;5094787;28;20024;-76
2022/06/29 01:42:41;;;;;;;2.78;0.40;;;20.60;70.70;;;;;;5094882;28;20455;-75
2022/06/29 01:45:07;;;;;;;2.75;0.68;;;20.50;70.60;;;;;;5094899;28;20027;-77
2022/06/29 01:47:33;;;;;;;0.98;0.30;;;20.50;70.90;;;;;;5094655;28;20027;-75
2022/06/29 01:49:58;;;;;;;1.45;0.50;;;20.40;71.10;;;;;;5094610;28;20044;-76
2022/06/29 01:52:24;;;;;;;2.10;0.40;;;20.40;71.00;;;;;;5094249;28;20471;-75
2022/06/29 01:54:50;;;;;;;1.95;0.50;;;20.40;71.20;;;;;;5094809;28;20032;-75
2022/06/29 01:57:15;;;;;;;1.85;0.50;;;20.40;71.40;;;;;;5094899;28;20086;-75
2022/06/29 01:59:41;;;;;;;1.67;0.50;;;20.40;71.40;;;;;;5094288;28;20493;-75
2022/06/29 02:02:07;;;;;;;3.80;0.70;;;20.40;71.40;;;;;;5094732;28;20024;-76
2022/06/29 02:04:33;;;;;;;4.40;1.20;;;20.40;71.40;;;;;;5094838;28;20035;-75
2022/06/29 02:06:59;;;;;;;3.17;0.47;;;20.40;71.50;;;;;;5094533;28;20111;-75
2022/06/29 02:09:24;;;;;;;1.77;0.40;;;20.30;71.70;;;;;;5094282;28;20028;-75
2022/06/29 02:11:50;;;;;;;2.30;0.60;;;20.30;71.80;;;;;;5094569;28;20032;-75
2022/06/29 02:14:16;;;;;;;3.13;0.60;;;20.30;71.70;;;;;;5094590;28;20421;-75
2022/06/29 02:16:42;;;;;;;2.75;0.47;;;20.30;71.80;;;;;;5094109;28;20019;-75
2022/06/29 02:19:07;;;;;;;5.65;0.80;;;20.20;71.90;;;;;;5094283;28;20028;-75
2022/06/29 02:21:33;;;;;;;2.47;0.60;;;20.20;71.90;;;;;;5094339;28;20099;-75
2022/06/29 02:23:58;;;;;;;2.60;0.50;;;20.20;72.00;;;;;;5094221;28;20490;-75
2022/06/29 02:26:24;;;;;;;2.35;0.57;;;20.20;72.20;;;;;;5094208;28;20069;-75
2022/06/29 02:28:49;;;;;;;2.15;0.40;;;20.20;72.40;;;;;;5093900;28;20016;-75
2022/06/29 02:36:43;;;;;;;2.10;0.55;;;20.20;72.30;;;;;;5094035;28;20030;-75
2022/06/29 02:39:09;;;;;;;2.53;0.60;;;20.30;72.40;;;;;;5093935;28;20110;-75
2022/06/29 02:41:34;;;;;;;2.63;0.50;;;20.30;72.50;;;;;;5093771;28;20020;-75
2022/06/29 02:44:00;;;;;;;4.68;0.60;;;20.30;72.50;;;;;;5094032;28;20062;-75
2022/06/29 02:46:26;;;;;;;1.45;0.40;;;20.30;72.40;;;;;;5093943;28;20054;-75
2022/06/29 02:48:51;;;;;;;2.53;0.55;;;20.30;72.60;;;;;;5093490;28;20075;-75
2022/06/29 02:51:17;;;;;;;2.17;0.70;;;20.30;72.70;;;;;;5092775;28;20032;-75
2022/06/29 02:53:42;;;;;;;2.75;0.40;;;20.30;72.80;;;;;;5093583;28;20035;-75
2022/06/29 02:56:08;;;;;;;3.03;0.50;;;20.30;72.80;;;;;;5093515;28;20016;-75
2022/06/29 02:58:34;;;;;;;4.10;0.70;;;20.30;72.80;;;;;;5093750;28;20026;-75
2022/06/29 03:00:59;;;;;;;2.00;0.60;;;20.20;72.90;;;;;;5093880;28;20031;-75
2022/06/29 03:03:25;;;;;;;2.13;0.50;;;20.20;72.90;;;;;;5093680;28;20020;-75
2022/06/29 03:05:50;;;;;;;4.45;0.85;;;20.20;73.20;;;;;;5093725;28;20023;-75
2022/06/29 03:08:16;;;;;;;2.50;0.70;;;20.10;73.20;;;;;;5093421;28;20106;-75
2022/06/29 03:10:42;;;;;;;1.90;0.70;;;20.10;73.30;;;;;;5093070;28;20020;-75
2022/06/29 03:13:07;;;;;;;2.97;0.70;;;20.10;73.60;;;;;;5093659;28;20028;-75
2022/06/29 03:15:33;;;;;;;2.50;0.75;;;20.00;73.70;;;;;;5093634;28;20050;-75
2022/06/29 03:17:58;;;;;;;2.17;0.70;;;19.90;73.80;;;;;;5093498;28;20416;-75
2022/06/29 03:20:24;;;;;;;2.10;0.60;;;19.90;74.00;;;;;;5093204;28;20031;-75
2022/06/29 03:22:50;;;;;;;7.88;2.05;;;19.90;73.90;;;;;;5093312;28;20034;-75
2022/06/29 03:25:16;;;;;;;1.98;0.70;;;20.00;74.00;;;;;;5093200;28;20107;-75
2022/06/29 03:27:42;;;;;;;2.10;0.60;;;20.00;74.00;;;;;;5093270;28;20490;-75
2022/06/29 03:30:08;;;;;;;2.35;0.60;;;20.10;74.10;;;;;;5093419;28;20052;-75
2022/06/29 03:32:34;;;;;;;2.22;0.55;;;20.10;73.80;;;;;;5093408;28;20032;-75
2022/06/29 03:35:00;;;;;;;3.20;0.82;;;20.10;73.80;;;;;;5093477;28;20062;-75
2022/06/29 03:37:26;;;;;;;3.75;0.52;;;20.10;74.50;;;;;;5093089;28;20035;-75
2022/06/29 03:39:51;;;;;;;2.65;1.00;;;20.00;74.50;;;;;;5093104;28;20027;-75
2022/06/29 03:42:17;;;;;;;2.03;0.40;;;20.10;73.90;;;;;;5093321;28;20051;-76
2022/06/29 03:44:42;;;;;;;1.83;0.70;;;20.00;74.00;;;;;;5093336;28;20456;-75
2022/06/29 03:47:08;;;;;;;2.13;0.80;;;20.00;74.20;;;;;;5093370;28;20455;-75
2022/06/29 03:49:35;;;;;;;3.47;0.80;;;20.00;74.10;;;;;;5092948;28;20076;-75
2022/06/29 03:52:01;;;;;;;3.17;0.93;;;20.00;74.00;;;;;;5092995;28;20040;-75
2022/06/29 03:54:26;;;;;;;3.35;0.90;;;19.90;74.30;;;;;;5093045;28;20020;-75
2022/06/29 03:56:52;;;;;;;4.57;0.85;;;19.80;74.60;;;;;;5093191;28;20112;-75
2022/06/29 03:59:18;;;;;;;3.20;1.13;;;19.80;74.80;;;;;;5092910;28;20106;-75
2022/06/29 04:01:43;;;;;;;3.25;1.20;;;19.80;74.80;;;;;;5092838;28;20024;-75
2022/06/29 04:04:09;;;;;;;2.05;0.95;;;19.70;75.80;;;;;;5096205;28;20618;-75
2022/06/29 04:06:34;;;;;;;3.65;0.85;;;19.60;75.60;;;;;;5096996;28;20111;-75
2022/06/29 04:09:00;;;;;;;2.25;0.90;;;19.60;75.60;;;;;;5096598;28;20024;-75
2022/06/29 04:14:09;;;;;;;3.75;0.93;;;19.60;75.60;;;;;;5096695;28;20031;-76
2022/06/29 04:16:35;;;;;;;2.20;0.90;;;19.60;75.60;;;;;;5096640;28;20028;-76
2022/06/29 04:19:01;;;;;;;2.88;0.93;;;19.60;75.50;;;;;;5096575;28;20402;-76
2022/06/29 04:21:26;;;;;;;3.13;1.40;;;19.60;75.70;;;;;;5096887;28;20027;-76
2022/06/29 04:23:52;;;;;;;2.75;1.15;;;19.50;75.90;;;;;;5096162;28;20024;-76
2022/06/29 04:26:18;;;;;;;4.40;0.80;;;19.50;76.00;;;;;;5096513;28;20024;-76
2022/06/29 04:28:44;;;;;;;3.20;1.73;;;19.50;76.20;;;;;;5096362;28;20488;-76
2022/06/29 04:31:09;;;;;;;2.38;0.80;;;19.40;76.40;;;;;;5096298;28;20072;-76
2022/06/29 04:33:35;;;;;;;2.47;1.00;;;19.40;76.60;;;;;;5096349;28;20032;-76
2022/06/29 04:36:01;;;;;;;1.88;1.13;;;19.40;76.70;;;;;;5096512;28;20028;-76
2022/06/29 04:38:27;;;;;;;3.13;1.20;;;19.50;77.00;;;;;;5095837;28;20021;-76
2022/06/29 04:40:52;;;;;;;2.95;1.10;;;19.40;77.20;;;;;;5096209;28;20031;-76
2022/06/29 04:43:18;;;;;;;3.30;1.27;;;19.40;77.30;;;;;;5096213;28;20107;-76
2022/06/29 04:48:28;;;;;;;3.28;1.23;;;19.40;77.50;;;;;;5096180;28;20543;-76
2022/06/29 04:50:53;;;;;;;4.30;1.10;;;19.40;77.70;;;;;;5095708;28;20032;-76
2022/06/29 04:53:19;;;;;;;1.90;1.23;;;19.40;77.90;;;;;;5096110;28;20122;-73
2022/06/29 04:55:44;;;;;;;2.95;1.20;;;19.40;77.80;;;;;;5095667;28;20484;-76
2022/06/29 04:58:10;;;;;;;3.13;1.30;;;19.50;77.90;;;;;;5095546;28;20028;-76
2022/06/29 05:00:35;;;;;;;3.33;1.10;;;19.60;77.70;;;;;;5095608;28;20020;-76
2022/06/29 05:03:01;;;;;;;3.15;1.50;;;19.50;77.60;;;;;;5095758;28;20028;-76
2022/06/29 05:05:27;;;;;;;3.47;1.10;;;19.50;77.90;;;;;;5095639;28;20054;-76
2022/06/29 05:07:52;;;;;;;5.05;1.70;;;19.60;78.10;;;;;;5095699;28;20406;-76
2022/06/29 05:10:18;;;;;;;2.63;1.27;;;19.50;78.30;;;;;;5095642;28;20086;-76
2022/06/29 05:12:44;;;;;;;2.60;1.17;;;19.50;78.50;;;;;;5095153;28;20036;-76
2022/06/29 05:15:10;;;;;;;2.05;1.40;;;19.50;78.40;;;;;;5094741;28;20039;-76
2022/06/29 05:17:39;;;;;;;2.17;1.00;;;19.50;78.40;;;;;;5095337;28;20368;-76
2022/06/29 05:20:07;;;;;;;1.90;1.20;;;19.60;78.40;;;;;;5095176;28;20114;-76
2022/06/29 05:22:34;;;;;;;3.30;1.48;;;19.60;78.50;;;;;;5095153;28;20379;-76
2022/06/29 05:24:59;;;;;;;3.42;1.80;;;19.60;78.50;;;;;;5095059;28;20028;-76
2022/06/29 05:27:25;;;;;;;2.92;1.30;;;19.70;78.80;;;;;;5095182;28;20024;-76
2022/06/29 05:29:51;;;;;;;1.80;0.95;;;19.70;78.60;;;;;;5095045;28;20540;-76
2022/06/29 05:32:16;;;;;;;3.15;0.88;;;19.80;78.60;;;;;;5094736;28;20391;-76
2022/06/29 05:34:42;;;;;;;4.25;1.15;;;19.80;78.60;;;;;;5094895;28;20050;-76
2022/06/29 05:37:08;;;;;;;4.15;1.20;;;19.90;78.50;;;;;;5094858;28;20077;-76
2022/06/29 05:39:33;;;;;;;1.85;1.23;;;20.00;78.20;;;;;;5095092;28;20027;-76
2022/06/29 05:41:59;;;;;;;3.28;1.10;;;20.00;78.10;;;;;;5094715;28;20460;-76
2022/06/29 05:44:24;;;;;;;2.38;1.33;;;20.10;78.00;;;;;;5095018;28;20056;-76
2022/06/29 05:46:50;;;;;;;2.97;1.00;;;20.10;77.50;;;;;;5094864;28;20034;-76
2022/06/29 05:49:16;;;;;;;2.92;1.20;;;20.10;77.50;;;;;;5094637;28;20078;-76
2022/06/29 05:51:41;;;;;;;2.08;1.50;;;20.20;77.40;;;;;;5094627;28;20032;-77
2022/06/29 05:54:07;;;;;;;5.25;1.88;;;20.20;77.10;;;;;;5094847;28;20024;-76
2022/06/29 05:56:33;;;;;;;4.28;1.40;;;20.20;77.20;;;;;;5094934;28;20375;-76
2022/06/29 05:58:58;;;;;;;2.33;0.30;;;20.20;77.20;;;;;;5093762;28;20047;-82
2022/06/29 06:01:24;;;;;;;2.10;0.40;;;20.30;78.30;;;;;;5094350;28;20020;-84
2022/06/29 06:03:50;;;;;;;0.90;0.38;;;20.50;78.30;;;;;;5092737;28;20035;-81
2022/06/29 06:06:15;;;;;;;3.65;0.70;;;20.70;77.80;;;;;;5092177;28;20027;-80
2022/06/29 06:08:41;;;;;;;4.85;0.98;;;20.90;77.10;;;;;;5092521;28;20036;-79
2022/06/29 06:11:07;;;;;;;11.35;1.00;;;21.00;76.00;;;;;;5090882;28;20028;-81
2022/06/29 06:13:32;;;;;;;6.65;0.95;;;21.10;75.30;;;;;;5093786;28;20024;-80
2022/06/29 06:15:59;;;;;;;3.13;1.15;;;21.20;75.60;;;;;;5092445;28;20149;-87
2022/06/29 06:18:25;;;;;;;4.50;1.48;;;21.30;75.20;;;;;;5091279;28;20028;-89
2022/06/29 06:20:50;;;;;;;4.85;1.63;;;21.40;73.80;;;;;;5091678;28;20722;-89
2022/06/29 06:23:16;;;;;;;4.63;1.40;;;21.30;73.50;;;;;;5096804;28;20030;-76
2022/06/29 06:25:42;;;;;;;3.40;0.77;;;21.30;74.10;;;;;;5096344;28;20097;-80
2022/06/29 06:28:08;;;;;;;3.25;2.13;;;21.40;74.70;;;;;;5090810;28;20578;-80
2022/06/29 06:30:33;;;;;;;3.13;1.55;;;21.50;73.20;;;;;;5092356;28;20028;-80
2022/06/29 06:32:59;;;;;;;5.53;2.00;;;21.50;72.90;;;;;;5091459;28;20036;-78
2022/06/29 06:35:25;;;;;;;3.58;1.30;;;21.40;73.30;;;;;;5089835;28;20085;-79
2022/06/29 06:37:52;;;;;;;4.03;1.42;;;21.50;73.80;;;;;;5092200;28;20493;-80
2022/06/29 06:43:02;;;;;;;4.50;0.73;;;21.80;73.30;;;;;;5091611;28;20386;-80
2022/06/29 06:45:28;;;;;;;6.85;1.30;;;22.00;73.90;;;;;;5091623;28;20028;-81
2022/06/29 06:47:54;;;;;;;2.83;0.82;;;22.10;72.90;;;;;;5092572;28;20044;-79
2022/06/29 06:50:20;;;;;;;3.80;1.00;;;22.20;72.70;;;;;;5091503;28;20071;-79
2022/06/29 06:52:46;;;;;;;5.20;1.80;;;22.30;72.60;;;;;;5092210;28;20027;-79
2022/06/29 06:55:13;;;;;;;3.88;1.40;;;22.40;71.90;;;;;;5091655;28;20074;-80
2022/06/29 06:57:38;;;;;;;5.38;1.17;;;22.50;71.80;;;;;;5089380;28;20029;-80
2022/06/29 07:00:05;;;;;;;2.80;1.20;;;22.60;71.80;;;;;;5091663;28;20039;-79
2022/06/29 07:02:30;;;;;;;4.68;1.77;;;22.60;71.70;;;;;;5091618;28;20040;-82
2022/06/29 07:04:56;;;;;;;1.83;1.27;;;22.70;71.40;;;;;;5092053;28;20048;-76
2022/06/29 07:07:22;;;;;;;4.28;1.70;;;22.70;72.80;;;;;;5091784;28;20020;-80
2022/06/29 07:09:47;;;;;;;4.60;1.60;;;22.70;72.40;;;;;;5091067;28;20425;-78
2022/06/29 07:12:13;;;;;;;5.03;1.45;;;22.80;72.40;;;;;;5091650;28;20441;-78
2022/06/29 07:14:38;;;;;;;3.03;1.65;;;22.80;72.90;;;;;;5090877;28;20028;-78
2022/06/29 07:17:04;;;;;;;3.72;1.80;;;22.90;74.10;;;;;;5091350;28;20046;-79
2022/06/29 07:19:29;;;;;;;8.77;2.45;;;22.90;72.50;;;;;;5091784;28;20112;-79
2022/06/29 07:21:55;;;;;;;5.55;2.17;;;22.90;72.10;;;;;;5091800;28;20020;-79
2022/06/29 07:24:21;;;;;;;5.60;2.42;;;22.80;72.30;;;;;;5091764;28;20035;-79
2022/06/29 07:26:46;;;;;;;5.30;2.35;;;22.80;73.40;;;;;;5091310;28;20438;-74
2022/06/29 07:29:12;;;;;;;4.53;2.10;;;22.80;73.30;;;;;;5091468;28;20485;-74
2022/06/29 07:31:37;;;;;;;6.22;3.17;;;22.80;74.30;;;;;;5093340;28;20101;-74
2022/06/29 07:34:04;;;;;;;5.30;2.47;;;22.90;75.60;;;;;;5092645;28;20030;-74
2022/06/29 07:36:30;;;;;;;8.20;2.83;;;22.90;74.60;;;;;;5093105;28;20052;-73
2022/06/29 07:38:55;;;;;;;7.63;2.53;;;23.00;74.20;;;;;;5096227;28;20054;-74
2022/06/29 07:41:21;;;;;;;7.72;2.25;;;23.00;75.00;;;;;;5097265;28;20028;-74
2022/06/29 07:43:46;;;;;;;5.68;2.00;;;23.10;75.00;;;;;;5097138;28;20528;-74
2022/06/29 07:46:12;;;;;;;4.68;2.00;;;23.20;74.30;;;;;;5097186;28;20027;-74
2022/06/29 07:48:38;;;;;;;4.25;2.40;;;23.20;73.10;;;;;;5096780;28;20214;-74
2022/06/29 07:51:04;;;;;;;13.18;4.05;;;23.20;73.80;;;;;;5096890;28;20467;-74
2022/06/29 07:53:30;;;;;;;8.77;2.58;;;23.30;73.60;;;;;;5097105;28;20514;-74
2022/06/29 07:55:55;;;;;;;9.48;2.83;;;23.40;73.40;;;;;;5096745;28;20374;-74
2022/06/29 07:58:21;;;;;;;7.75;2.00;;;23.50;73.50;;;;;;5096583;28;20032;-74
2022/06/29 08:00:47;;;;;;;3.63;1.45;;;23.70;70.20;;;;;;5097165;28;20016;-74
2022/06/29 08:03:13;;;;;;;11.05;2.13;;;23.70;69.50;;;;;;5096981;28;20486;-73
2022/06/29 08:05:40;;;;;;;6.93;2.33;;;23.90;71.10;;;;;;5096355;28;20031;-74
2022/06/29 08:08:06;;;;;;;4.85;1.40;;;24.00;70.90;;;;;;5096553;28;20468;-74
2022/06/29 08:10:32;;;;;;;5.35;1.70;;;24.10;70.50;;;;;;5096655;28;20020;-74
2022/06/29 08:12:57;;;;;;;4.90;1.00;;;24.20;69.50;;;;;;5096504;28;20032;-74
2022/06/29 08:15:24;;;;;;;3.33;1.23;;;24.30;71.80;;;;;;5096444;28;20050;-74
2022/06/29 08:17:52;;;;;;;3.67;1.02;;;24.40;66.70;;;;;;5096364;28;20422;-74
2022/06/29 08:20:17;;;;;;;4.47;0.95;;;24.30;66.80;;;;;;5095577;28;20410;-76
2022/06/29 08:22:43;;;;;;;2.63;0.82;;;24.40;66.00;;;;;;5094816;28;20020;-76
2022/06/29 08:25:09;;;;;;;6.60;1.05;;;24.50;65.50;;;;;;5094691;28;20024;-74
2022/06/29 08:27:34;;;;;;;4.20;0.70;;;24.60;65.90;;;;;;5094893;28;20028;-74
2022/06/29 08:30:00;;;;;;;2.08;0.60;;;24.70;66.20;;;;;;5094435;28;20030;-74
2022/06/29 08:32:26;;;;;;;1.70;0.40;;;24.80;66.60;;;;;;5094972;28;20080;-74
2022/06/29 08:34:52;;;;;;;1.63;0.60;;;24.80;66.10;;;;;;5094737;28;20475;-75
2022/06/29 08:37:18;;;;;;;6.43;0.82;;;24.80;64.10;;;;;;5094608;28;20115;-76
2022/06/29 08:39:45;;;;;;;3.55;1.00;;;24.80;65.60;;;;;;5094476;28;20463;-75
2022/06/29 08:42:11;;;;;;;2.65;0.70;;;24.90;65.70;;;;;;5094739;28;20032;-75
2022/06/29 08:44:38;;;;;;;4.13;0.90;;;25.00;65.90;;;;;;5095687;28;20490;-75
2022/06/29 08:47:05;;;;;;;4.63;0.65;;;25.20;66.30;;;;;;5095396;28;20031;-75
2022/06/29 08:49:31;;;;;;;3.40;0.65;;;25.30;65.40;;;;;;5094242;28;20502;-75
2022/06/29 08:51:57;;;;;;;2.67;0.57;;;25.40;62.60;;;;;;5095476;28;20066;-74
2022/06/29 08:54:25;;;;;;;4.18;0.88;;;25.40;63.30;;;;;;5075355;28;20027;-73
2022/06/29 08:56:53;;;;;;;3.30;0.80;;;25.50;67.40;;;;;;5075661;28;20032;-73
2022/06/29 08:59:21;;;;;;;4.30;0.73;;;25.60;67.40;;;;;;5075371;28;20472;-74
2022/06/29 09:01:47;;;;;;;3.90;0.70;;;25.70;64.90;;;;;;5075634;28;20028;-74
2022/06/29 09:04:13;;;;;;;4.80;0.40;;;25.80;63.30;;;;;;5080945;28;20012;-73
2022/06/29 09:06:39;;;;;;;2.92;0.77;;;25.80;64.10;;;;;;5095648;28;20493;-74
2022/06/29 09:09:04;;;;;;;4.15;0.60;;;25.90;62.60;;;;;;5095547;28;20020;-74
2022/06/29 09:11:30;;;;;;;4.18;0.45;;;25.90;61.30;;;;;;5095717;28;20490;-74
2022/06/29 09:14:12;;;;;;;6.70;0.68;;;26.00;62.90;;;;;;5095281;28;20459;-75
2022/06/29 09:16:59;;;;;;;2.70;0.57;;;26.00;62.80;;;;;;5095535;28;20077;-74
2022/06/29 09:19:29;;;;;;;4.80;0.80;;;26.20;63.70;;;;;;5095546;28;20028;-74
2022/06/29 09:21:57;;;;;;;4.88;1.08;;;26.20;61.90;;;;;;5095505;28;20051;-75
2022/06/29 09:24:32;;;;;;;2.33;0.57;;;26.20;60.20;;;;;;5094947;28;20023;-74
2022/06/29 09:27:00;;;;;;;1.73;0.60;;;26.10;59.70;;;;;;5096360;28;20107;-73
2022/06/29 09:29:27;;;;;;;4.25;0.90;;;26.10;60.60;;;;;;5095357;28;20035;-74
2022/06/29 09:32:08;;;;;;;3.88;0.90;;;26.20;62.80;;;;;;5095105;28;20032;-74
2022/06/29 09:34:50;;;;;;;1.98;0.50;;;26.30;61.80;;;;;;5095058;28;20023;-74
2022/06/29 09:37:21;;;;;;;3.85;0.80;;;26.50;62.10;;;;;;5074718;28;20032;-74
2022/06/29 09:39:51;;;;;;;2.07;0.73;;;26.70;63.80;;;;;;5074785;28;20025;-74
2022/06/29 09:42:19;;;;;;;4.85;0.70;;;26.80;62.30;;;;;;5082738;28;20020;-75
2022/06/29 09:44:46;;;;;;;1.80;0.50;;;26.80;62.60;;;;;;5094932;28;20024;-75
2022/06/29 09:47:16;;;;;;;1.48;0.60;;;26.90;62.00;;;;;;5094765;28;20024;-75
2022/06/29 09:49:43;;;;;;;2.67;0.50;;;27.00;60.20;;;;;;5094347;28;20048;-75
2022/06/29 09:52:10;;;;;;;6.18;0.70;;;27.10;60.20;;;;;;5094606;28;20096;-75
2022/06/29 09:54:45;;;;;;;6.28;0.55;;;27.20;59.10;;;;;;5094769;28;20103;-75
2022/06/29 09:57:12;;;;;;;2.05;0.70;;;27.30;62.90;;;;;;5094657;28;20020;-75
2022/06/29 10:02:42;;;;;;;4.78;0.60;;;27.50;59.90;;;;;;5094304;28;20461;-75
2022/06/29 10:05:12;;;;;;;3.83;0.60;;;27.70;60.80;;;;;;5094523;28;20052;-75
2022/06/29 10:07:43;;;;;;;1.60;0.40;;;27.80;58.50;;;;;;5094467;28;20055;-75
2022/06/29 10:10:13;;;;;;;2.35;0.30;;;27.90;56.90;;;;;;5094536;28;20028;-73
2022/06/29 10:16:26;;;;;;;0.98;0.20;;;27.90;56.00;;;;;;5094088;28;20081;-74
2022/06/29 10:18:51;;;;;;;;;;;28.00;52.80;;;;;;5094869;28;20024;-75
2022/06/29 10:21:22;;;;;;;2.05;0.50;;;28.10;54.50;;;;;;5094390;28;19908;-75
2022/06/29 10:23:54;;;;;;;1.77;0.28;;;28.10;53.80;;;;;;5094019;28;20048;-74
2022/06/29 10:26:32;;;;;;;2.50;0.50;;;27.90;52.90;;;;;;5093973;28;20035;-75
2022/06/29 10:29:10;;;;;;;4.90;0.50;;;27.70;53.90;;;;;;5093899;28;20032;-73
2022/06/29 10:31:54;;;;;;;2.85;0.50;;;27.50;54.50;;;;;;5093798;28;20036;-74
2022/06/29 10:34:31;;;;;;;3.72;0.68;;;27.30;56.20;;;;;;5093714;28;20036;-74
2022/06/29 10:37:14;;;;;;;1.75;0.40;;;27.30;57.90;;;;;;5107116;28;20382;-73
2022/06/29 10:39:46;;;;;;;3.38;0.40;;;27.30;58.50;;;;;;5103557;28;20032;-74
2022/06/29 10:45:18;;;;;;;3.05;0.55;;;27.60;58.50;;;;;;5093198;28;20089;-74
2022/06/29 10:47:56;;;;;;;3.45;0.30;;;27.90;58.60;;;;;;5093749;28;20047;-74
2022/06/29 10:50:26;;;;;;;5.60;0.30;;;28.00;57.90;;;;;;5092223;28;20040;-74
2022/06/29 10:53:02;;;;;;;2.58;0.30;;;28.10;55.00;;;;;;5091916;28;20036;-74
2022/06/29 10:55:29;;;;;;;1.45;0.20;;;28.10;53.60;;;;;;5092282;28;20426;-73
2022/06/29 10:57:55;;;;;;;3.88;0.40;;;28.00;55.30;;;;;;5091395;28;20027;-76
2022/06/29 11:00:21;;;;;;;4.90;0.73;;;28.00;54.10;;;;;;5091822;28;20036;-75
2022/06/29 11:02:47;;;;;;;3.78;0.32;;;28.10;53.40;;;;;;5091936;28;20174;-75
2022/06/29 11:05:13;;;;;;;1.83;0.40;;;28.20;53.00;;;;;;5091736;28;20107;-76
2022/06/29 11:13:25;;;;;;;3.92;0.60;;;28.40;52.80;;;;;;5090952;28;20093;-76
2022/06/29 11:15:53;;;;;;;2.70;0.40;;;28.60;52.00;;;;;;5091340;28;20052;-76
2022/06/29 11:18:21;;;;;;;1.40;0.30;;;28.70;53.20;;;;;;5091729;28;20020;-77
2022/06/29 11:20:49;;;;;;;1.13;0.20;;;28.80;52.20;;;;;;5091599;28;20024;-77
2022/06/29 11:23:17;;;;;;;1.05;0.25;;;28.90;51.40;;;;;;5092063;28;20024;-77
2022/06/29 11:25:46;;;;;;;3.42;0.30;;;29.00;51.50;;;;;;5093055;28;20028;-77
2022/06/29 11:28:19;;;;;;;1.25;0.20;;;29.00;51.40;;;;;;5092804;28;20052;-77
2022/06/29 11:31:04;;;;;;;3.33;0.50;;;29.10;50.80;;;;;;5092937;28;20052;-77
2022/06/29 11:33:36;;;;;;;3.60;0.30;;;29.10;50.00;;;;;;5092110;28;20028;-77
2022/06/29 11:36:25;;;;;;;1.88;0.40;;;29.00;49.70;;;;;;5092962;28;20029;-77
2022/06/29 11:38:54;;;;;;;0.95;0.20;;;29.00;49.60;;;;;;5092956;28;20035;-77
2022/06/29 11:43:03;;;;;;;2.05;0.30;;;29.10;48.90;;;;;;5092716;28;20028;-77
2022/06/29 11:44:28;;;;;;;2.67;0.30;;;29.10;49.10;;;;;;5092865;28;20031;-77
2022/06/29 11:46:55;;;;;;;3.55;0.30;;;29.10;50.00;;;;;;5092965;28;20024;-77
2022/06/29 11:49:38;;;;;;;2.63;0.30;;;29.30;49.50;;;;;;5092792;28;20040;-77
2022/06/29 11:52:05;;;;;;;1.55;0.30;;;29.30;49.20;;;;;;5092821;28;20032;-77
2022/06/29 11:54:36;;;;;;;1.75;0.40;;;29.30;48.80;;;;;;5092791;28;20515;-77
2022/06/29 11:57:10;;;;;;;3.67;0.40;;;29.40;52.20;;;;;;5092588;28;20070;-77
2022/06/29 11:59:37;;;;;;;3.75;0.40;;;29.50;48.60;;;;;;5092767;28;20028;-77
2022/06/29 12:02:03;;;;;;;4.13;0.30;;;29.50;48.60;;;;;;5092461;28;20061;-77
2022/06/29 12:04:31;;;;;;;0.90;0.30;;;29.50;48.80;;;;;;5092723;28;20054;-77
2022/06/29 12:07:05;;;;;;;1.38;0.50;;;29.50;49.30;;;;;;5092585;28;20105;-78
2022/06/29 12:09:32;;;;;;;1.40;0.40;;;29.60;52.20;;;;;;5093033;28;20391;-77
2022/06/29 12:11:58;;;;;;;1.45;0.38;;;29.70;50.30;;;;;;5092609;28;20124;-77
2022/06/29 12:14:23;;;;;;;1.35;0.40;;;29.60;48.10;;;;;;5092404;28;20493;-76
2022/06/29 12:16:49;;;;;;;4.50;0.40;;;29.30;48.60;;;;;;5092687;28;20378;-76
2022/06/29 12:19:15;;;;;;;5.20;0.40;;;29.20;49.30;;;;;;5092860;28;20367;-77
2022/06/29 12:21:40;;;;;;;2.03;0.30;;;29.10;49.30;;;;;;5092671;28;20356;-76
2022/06/29 12:24:06;;;;;;;3.53;0.50;;;28.90;50.50;;;;;;5093649;28;20020;-76
2022/06/29 12:26:32;;;;;;;2.17;0.40;;;28.80;50.90;;;;;;5096165;28;20020;-77
2022/06/29 12:28:58;;;;;;;4.07;0.40;;;28.80;51.60;;;;;;5096162;28;20031;-76
2022/06/29 12:31:23;;;;;;;2.78;0.30;;;28.80;51.60;;;;;;5095913;28;20035;-77
2022/06/29 12:33:49;;;;;;;1.73;0.40;;;28.90;51.30;;;;;;5096238;28;20028;-77
2022/06/29 12:36:14;;;;;;;2.92;0.30;;;28.90;50.90;;;;;;5095937;28;20020;-77
2022/06/29 12:38:40;;;;;;;1.33;0.38;;;28.90;50.60;;;;;;5096086;28;20073;-76
2022/06/29 12:41:07;;;;;;;3.05;0.40;;;28.90;53.60;;;;;;5096317;28;20020;-76
2022/06/29 12:43:32;;;;;;;4.65;0.40;;;29.00;51.10;;;;;;5095729;28;20073;-76
2022/06/29 12:45:59;;;;;;;2.47;0.38;;;29.10;52.10;;;;;;5095846;28;20031;-76
2022/06/29 12:48:25;;;;;;;4.28;0.50;;;29.10;52.10;;;;;;5095677;28;20399;-77
2022/06/29 12:50:50;;;;;;;1.45;0.50;;;29.30;51.90;;;;;;5096072;28;20020;-76
2022/06/29 12:53:16;;;;;;;2.67;0.43;;;29.30;50.90;;;;;;5095768;28;20020;-76
2022/06/29 12:55:42;;;;;;;2.45;0.50;;;29.30;51.70;;;;;;5095833;28;20024;-77
2022/06/29 12:58:08;;;;;;;2.33;0.50;;;29.30;53.00;;;;;;5095842;28;20145;-77
2022/06/29 13:00:34;;;;;;;3.00;0.50;;;29.20;52.70;;;;;;5095907;28;20020;-77
2022/06/29 13:03:00;;;;;;;3.92;0.52;;;29.10;53.00;;;;;;5095534;28;20020;-77
2022/06/29 13:05:26;;;;;;;3.15;0.40;;;28.90;51.60;;;;;;5095828;28;20164;-77
2022/06/29 13:07:51;;;;;;;1.88;0.40;;;28.80;52.60;;;;;;5095671;28;20332;-77
2022/06/29 13:10:17;;;;;;;5.47;0.70;;;28.70;52.50;;;;;;5095559;28;20028;-77
2022/06/29 13:12:43;;;;;;;2.97;0.50;;;28.50;52.60;;;;;;5095544;28;20040;-77
2022/06/29 13:15:08;;;;;;;3.40;0.50;;;28.40;54.00;;;;;;5095696;28;20028;-76